createdAt,value
2019-03-21T00:01:56.509Z,101341.92
2019-03-21T00:04:13.315Z,101344.95
2019-03-21T00:06:20.011Z,101344.95
2019-03-21T00:08:26.877Z,101351.11
2019-03-21T00:10:37.927Z,101347.31
2019-03-21T00:12:44.630Z,101342.52
2019-03-21T00:14:58.930Z,101339.47
2019-03-21T00:17:13.355Z,101334.63
2019-03-21T00:19:20.110Z,101340.27
2019-03-21T00:21:26.843Z,101341.02
2019-03-21T00:23:33.684Z,101341.98
2019-03-21T00:25:40.630Z,101339.44
2019-03-21T00:27:47.301Z,101328.97
2019-03-21T00:29:55.255Z,101330.34
2019-03-21T00:32:02.221Z,101329.03
2019-03-21T00:34:08.889Z,101319.36
2019-03-21T00:36:15.659Z,101307.27
2019-03-21T00:38:22.442Z,101309.89
2019-03-21T00:40:39.165Z,101323.02
2019-03-21T00:42:45.999Z,101310.80
2019-03-21T00:44:52.689Z,101310.86
2019-03-21T00:46:59.360Z,101314.45
2019-03-21T00:49:06.019Z,101314.87
2019-03-21T00:51:12.712Z,101304.02
2019-03-21T00:53:19.381Z,101302.22
2019-03-21T00:55:30.999Z,101293.52
2019-03-21T00:57:37.698Z,101287.43
2019-03-21T00:59:44.430Z,101284.73
2019-03-21T01:01:51.177Z,101293.58
2019-03-21T01:03:57.868Z,101283.01
2019-03-21T01:06:04.933Z,101280.86
2019-03-21T01:08:11.604Z,101280.45
2019-03-21T01:10:28.648Z,101271.59
2019-03-21T01:12:35.315Z,101268.97
2019-03-21T01:14:41.982Z,101268.14
2019-03-21T01:16:48.682Z,101262.96
2019-03-21T01:18:55.341Z,101263.82
2019-03-21T01:21:02.017Z,101265.62
2019-03-21T01:23:08.715Z,101264.72
2019-03-21T01:25:25.525Z,101264.72
2019-03-21T01:27:32.275Z,101273.02
2019-03-21T01:29:38.974Z,101273.40
2019-03-21T01:31:45.715Z,101274.78
2019-03-21T01:33:52.487Z,101277.41
2019-03-21T01:35:59.207Z,101283.98
2019-03-21T01:38:05.873Z,101279.41
2019-03-21T01:40:34.722Z,101277.27
2019-03-21T01:42:41.412Z,101276.78
2019-03-21T01:44:48.079Z,101278.52
2019-03-21T01:46:54.758Z,101281.07
2019-03-21T01:49:01.451Z,101281.55
2019-03-21T01:51:08.123Z,101277.61
2019-03-21T01:53:14.787Z,101276.86
2019-03-21T01:55:21.486Z,101269.39
2019-03-21T01:57:28.231Z,101268.91
2019-03-21T01:59:34.897Z,101258.40
2019-03-21T02:01:41.792Z,101257.91
2019-03-21T02:03:48.535Z,101259.71
2019-03-21T02:05:55.203Z,101257.50
2019-03-21T02:08:01.891Z,101254.80
2019-03-21T02:10:16.401Z,101247.41
2019-03-21T02:12:23.176Z,101243.47
2019-03-21T02:14:29.873Z,101235.52
2019-03-21T02:16:36.540Z,101237.73
2019-03-21T02:18:43.278Z,101241.73
2019-03-21T02:20:50.192Z,101236.07
2019-03-21T02:22:56.858Z,101238.22
2019-03-21T02:25:07.067Z,101229.50
2019-03-21T02:27:12.882Z,101229.64
2019-03-21T02:29:19.411Z,101237.94
2019-03-21T02:31:26.074Z,101237.52
2019-03-21T02:33:36.203Z,101235.41
2019-03-21T02:35:43.005Z,101235.48
2019-03-21T02:37:49.670Z,101243.84
2019-03-21T02:39:59.906Z,101247.37
2019-03-21T02:42:04.820Z,101252.69
2019-03-21T02:44:11.541Z,101250.48
2019-03-21T02:46:18.440Z,101255.38
2019-03-21T02:48:25.186Z,101251.52
2019-03-21T02:50:45.928Z,101253.31
2019-03-21T02:52:52.619Z,101256.42
2019-03-21T02:54:59.356Z,101253.80
2019-03-21T02:57:06.035Z,101254.31
2019-03-21T02:59:12.734Z,101251.65
2019-03-21T03:01:19.612Z,101246.91
2019-03-21T03:03:26.282Z,101243.52
2019-03-21T03:05:35.188Z,101242.48
2019-03-21T03:07:41.866Z,101245.56
2019-03-21T03:09:48.531Z,101249.50
2019-03-21T03:11:55.216Z,101246.39
2019-03-21T03:14:04.478Z,101260.02
2019-03-21T03:16:10.325Z,101257.42
2019-03-21T03:18:21.273Z,101264.78
2019-03-21T03:20:27.919Z,101268.76
2019-03-21T03:22:34.655Z,101269.24
2019-03-21T03:24:41.346Z,101265.30
2019-03-21T03:26:48.081Z,101271.11
2019-03-21T03:28:54.749Z,101275.11
2019-03-21T03:31:01.718Z,101276.02
2019-03-21T03:33:08.632Z,101272.97
2019-03-21T03:35:15.584Z,101277.81
2019-03-21T03:37:22.355Z,101273.52
2019-03-21T03:39:29.020Z,101274.91
2019-03-21T03:41:35.982Z,101275.87
2019-03-21T03:43:42.874Z,101278.50
2019-03-21T03:45:49.521Z,101279.98
2019-03-21T03:47:56.232Z,101280.05
2019-03-21T03:50:02.943Z,101285.85
2019-03-21T03:52:09.593Z,101289.93
2019-03-21T03:54:16.330Z,101287.78
2019-03-21T03:56:23.024Z,101290.48
2019-03-21T03:58:43.119Z,101289.20
2019-03-21T04:00:49.783Z,101289.20
2019-03-21T04:02:57.673Z,101291.55
2019-03-21T04:05:05.800Z,101288.63
2019-03-21T04:07:12.460Z,101293.61
2019-03-21T04:09:20.140Z,101291.00
2019-03-21T04:11:27.006Z,101288.92
2019-03-21T04:13:34.795Z,101285.53
2019-03-21T04:15:52.314Z,101291.34
2019-03-21T04:17:49.840Z,101287.11
2019-03-21T04:19:56.617Z,101288.03
2019-03-21T04:22:03.375Z,101283.80
2019-03-21T04:24:11.141Z,101287.46
2019-03-21T04:26:34.109Z,101289.73
2019-03-21T04:28:41.797Z,101289.87
2019-03-21T04:30:48.962Z,101289.45
2019-03-21T04:32:56.622Z,101286.84
2019-03-21T04:35:03.313Z,101285.60
2019-03-21T04:37:10.727Z,101288.30
2019-03-21T04:39:17.397Z,101286.69
2019-03-21T04:41:24.096Z,101288.97
2019-03-21T04:43:31.042Z,101289.45
2019-03-21T04:45:37.704Z,101289.09
2019-03-21T04:47:44.419Z,101292.17
2019-03-21T04:49:51.163Z,101299.62
2019-03-21T04:51:58.883Z,101301.03
2019-03-21T04:54:06.037Z,101294.03
2019-03-21T04:56:12.704Z,101294.87
2019-03-21T04:58:19.452Z,101288.35
2019-03-21T05:00:35.962Z,101297.20
2019-03-21T05:02:42.704Z,101293.61
2019-03-21T05:04:49.371Z,101292.23
2019-03-21T05:06:56.062Z,101295.67
2019-03-21T05:09:03.115Z,101300.03
2019-03-21T05:11:09.794Z,101301.77
2019-03-21T05:13:16.560Z,101298.72
2019-03-21T05:15:36.341Z,101302.25
2019-03-21T05:17:43.178Z,101299.20
2019-03-21T05:19:49.945Z,101309.34
2019-03-21T05:21:56.619Z,101300.06
2019-03-21T05:24:03.402Z,101303.59
2019-03-21T05:26:10.099Z,101308.02
2019-03-21T05:28:17.777Z,101305.39
2019-03-21T05:30:40.472Z,101312.45
2019-03-21T05:32:47.167Z,101308.02
2019-03-21T05:34:53.828Z,101307.13
2019-03-21T05:37:00.498Z,101309.41
2019-03-21T05:39:10.802Z,101307.25
2019-03-21T05:41:17.453Z,101311.68
2019-03-21T05:44:03.095Z,101316.59
2019-03-21T05:46:09.910Z,101318.58
2019-03-21T05:48:16.665Z,101319.69
2019-03-21T05:50:23.339Z,101318.09
2019-03-21T05:52:30.117Z,101322.25
2019-03-21T05:54:36.776Z,101323.56
2019-03-21T05:56:43.512Z,101322.86
2019-03-21T05:58:50.242Z,101326.16
2019-03-21T06:01:00.946Z,101319.24
2019-03-21T06:03:23.814Z,101325.17
2019-03-21T06:05:32.112Z,101323.92
2019-03-21T06:07:49.039Z,101329.81
2019-03-21T06:09:55.786Z,101329.64
2019-03-21T06:12:05.570Z,101325.69
2019-03-21T06:14:12.439Z,101330.69
2019-03-21T06:16:19.176Z,101325.53
2019-03-21T06:18:54.499Z,101331.22
2019-03-21T06:21:21.093Z,101332.59
2019-03-21T06:23:46.832Z,101328.05
2019-03-21T06:26:13.089Z,101328.61
2019-03-21T06:28:19.764Z,101328.61
2019-03-21T06:30:26.423Z,101330.89
2019-03-21T06:32:33.128Z,101332.59
2019-03-21T06:34:39.799Z,101341.83
2019-03-21T06:36:46.466Z,101333.17
2019-03-21T06:38:53.160Z,101334.77
2019-03-21T06:40:59.823Z,101333.77
2019-03-21T06:43:06.493Z,101331.72
2019-03-21T06:45:13.183Z,101329.81
2019-03-21T06:47:19.928Z,101334.55
2019-03-21T06:49:26.670Z,101334.61
2019-03-21T06:51:33.372Z,101335.20
2019-03-21T06:53:41.128Z,101343.16
2019-03-21T06:55:47.807Z,101341.20
2019-03-21T06:57:54.506Z,101348.20
2019-03-21T07:00:01.180Z,101359.82
2019-03-21T07:02:09.212Z,101353.48
2019-03-21T07:04:15.902Z,101354.19
2019-03-21T07:06:22.605Z,101359.46
2019-03-21T07:08:29.274Z,101353.17
2019-03-21T07:10:35.963Z,101355.15
2019-03-21T07:12:43.636Z,101357.66
2019-03-21T07:14:50.375Z,101356.76
2019-03-21T07:17:00.621Z,101357.66
2019-03-21T07:19:05.500Z,101356.22
2019-03-21T07:21:12.167Z,101358.85
2019-03-21T07:23:18.935Z,101360.06
2019-03-21T07:25:25.677Z,101359.03
2019-03-21T07:27:32.348Z,101361.60
2019-03-21T07:29:39.061Z,101361.70
2019-03-21T07:31:45.805Z,101361.66
2019-03-21T07:33:52.485Z,101364.00
2019-03-21T07:35:59.468Z,101361.75
2019-03-21T07:38:06.147Z,101361.75
2019-03-21T07:40:14.414Z,101362.70
2019-03-21T07:42:22.267Z,101362.91
2019-03-21T07:44:28.937Z,101368.83
2019-03-21T07:46:35.708Z,101362.50
2019-03-21T07:48:42.589Z,101363.64
2019-03-21T07:50:49.271Z,101373.52
2019-03-21T07:52:55.944Z,101374.42
2019-03-21T07:55:02.667Z,101375.17
2019-03-21T07:57:09.490Z,101374.11
2019-03-21T07:59:16.144Z,101373.40
2019-03-21T08:01:22.947Z,101380.69
2019-03-21T08:03:29.632Z,101387.06
2019-03-21T08:05:40.641Z,101382.40
2019-03-21T08:07:44.701Z,101390.13
2019-03-21T08:09:51.373Z,101387.34
2019-03-21T08:11:58.049Z,101383.51
2019-03-21T08:14:04.842Z,101386.27
2019-03-21T08:16:11.521Z,101386.07
2019-03-21T08:18:18.293Z,101391.01
2019-03-21T08:20:25.003Z,101394.38
2019-03-21T08:22:31.682Z,101395.16
2019-03-21T08:24:38.358Z,101397.38
2019-03-21T08:26:45.128Z,101389.34
2019-03-21T08:28:51.800Z,101382.02
2019-03-21T08:31:08.746Z,101386.16
2019-03-21T08:33:15.519Z,101382.39
2019-03-21T08:35:22.282Z,101385.69
2019-03-21T08:37:29.034Z,101385.70
2019-03-21T08:39:35.829Z,101379.56
2019-03-21T08:41:42.527Z,101383.94
2019-03-21T08:43:50.088Z,101382.46
2019-03-21T08:45:56.792Z,101374.98
2019-03-21T08:48:04.868Z,101379.23
2019-03-21T08:50:13.508Z,101377.89
2019-03-21T08:52:20.217Z,101380.13
2019-03-21T08:54:26.886Z,101380.94
2019-03-21T08:56:33.560Z,101381.29
2019-03-21T08:58:40.335Z,101380.72
2019-03-21T09:00:47.008Z,101376.79
2019-03-21T09:02:53.681Z,101376.02
2019-03-21T09:05:00.399Z,101382.42
2019-03-21T09:07:07.144Z,101380.80
2019-03-21T09:09:13.890Z,101379.52
2019-03-21T09:11:20.587Z,101382.52
2019-03-21T09:13:27.253Z,101381.32
2019-03-21T09:15:33.951Z,101382.17
2019-03-21T09:17:40.667Z,101384.09
2019-03-21T09:19:47.364Z,101387.25
2019-03-21T09:21:55.037Z,101387.13
2019-03-21T09:24:01.728Z,101386.98
2019-03-21T09:26:09.931Z,101389.63
2019-03-21T09:28:16.678Z,101397.59
2019-03-21T09:30:23.462Z,101394.01
2019-03-21T09:32:30.132Z,101394.66
2019-03-21T09:34:36.815Z,101393.83
2019-03-21T09:36:43.583Z,101389.42
2019-03-21T09:38:50.262Z,101394.95
2019-03-21T09:40:56.929Z,101395.11
2019-03-21T09:43:03.697Z,101388.16
2019-03-21T09:45:10.993Z,101393.21
2019-03-21T09:47:17.732Z,101398.72
2019-03-21T09:49:24.434Z,101390.13
2019-03-21T09:51:31.324Z,101391.50
2019-03-21T09:53:38.049Z,101393.16
2019-03-21T09:55:44.739Z,101394.48
2019-03-21T09:57:51.482Z,101395.12
2019-03-21T09:59:58.159Z,101390.50
2019-03-21T10:02:04.977Z,101389.33
2019-03-21T10:04:11.653Z,101390.61
2019-03-21T10:06:18.326Z,101392.08
2019-03-21T10:08:25.199Z,101389.85
2019-03-21T10:10:33.869Z,101385.03
2019-03-21T10:12:40.542Z,101384.88
2019-03-21T10:14:47.314Z,101388.19
2019-03-21T10:16:54.061Z,101394.03
2019-03-21T10:19:00.730Z,101389.59
2019-03-21T10:21:07.438Z,101386.55
2019-03-21T10:23:14.109Z,101379.97
2019-03-21T10:25:20.778Z,101383.39
2019-03-21T10:27:27.463Z,101383.52
2019-03-21T10:29:34.139Z,101384.80
2019-03-21T10:31:40.803Z,101386.06
2019-03-21T10:33:47.616Z,101379.37
2019-03-21T10:35:54.348Z,101380.89
2019-03-21T10:38:01.017Z,101380.30
2019-03-21T10:40:08.120Z,101377.48
2019-03-21T10:42:14.787Z,101370.48
2019-03-21T10:44:21.462Z,101370.16
2019-03-21T10:46:28.165Z,101368.65
2019-03-21T10:48:34.838Z,101367.21
2019-03-21T10:50:42.814Z,101365.58
2019-03-21T10:52:49.513Z,101370.42
2019-03-21T10:54:56.248Z,101367.08
2019-03-21T10:57:02.938Z,101369.68
2019-03-21T10:59:09.698Z,101372.91
2019-03-21T11:01:16.371Z,101365.23
2019-03-21T11:03:23.044Z,101364.45
2019-03-21T11:05:29.737Z,101357.37
2019-03-21T11:07:36.411Z,101356.41
2019-03-21T11:09:43.157Z,101352.92
2019-03-21T11:11:49.883Z,101351.95
2019-03-21T11:13:56.556Z,101347.83
2019-03-21T11:16:03.295Z,101355.85
2019-03-21T11:18:10.261Z,101349.16
2019-03-21T11:20:29.493Z,101345.08
2019-03-21T11:22:36.158Z,101345.63
2019-03-21T11:24:42.999Z,101345.84
2019-03-21T11:26:49.694Z,101347.75
2019-03-21T11:28:56.423Z,101339.41
2019-03-21T11:31:03.165Z,101346.85
2019-03-21T11:33:10.514Z,101338.56
2019-03-21T11:35:17.177Z,101334.87
2019-03-21T11:37:23.902Z,101333.14
2019-03-21T11:39:30.866Z,101326.72
2019-03-21T11:41:37.604Z,101324.28
2019-03-21T11:43:44.315Z,101325.15
2019-03-21T11:45:51.077Z,101313.73
2019-03-21T11:47:59.807Z,101308.67
2019-03-21T11:50:08.912Z,101314.80
2019-03-21T11:52:18.387Z,101308.56
2019-03-21T11:54:23.933Z,101308.58
2019-03-21T11:56:30.638Z,101306.05
2019-03-21T11:58:37.477Z,101314.34
2019-03-21T12:00:45.375Z,101316.63
2019-03-21T12:02:53.403Z,101308.56
2019-03-21T12:05:00.065Z,101307.48
2019-03-21T12:07:06.746Z,101312.59
2019-03-21T12:09:13.534Z,101311.94
2019-03-21T12:11:21.414Z,101305.94
2019-03-21T12:13:28.228Z,101308.16
2019-03-21T12:15:34.909Z,101305.69
2019-03-21T12:17:41.581Z,101304.12
2019-03-21T12:19:48.277Z,101299.67
2019-03-21T12:21:55.040Z,101300.73
2019-03-21T12:24:01.779Z,101300.75
2019-03-21T12:26:08.442Z,101299.68
2019-03-21T12:28:15.142Z,101301.63
2019-03-21T12:30:36.793Z,101305.29
2019-03-21T12:32:43.479Z,101308.13
2019-03-21T12:34:50.224Z,101307.95
2019-03-21T12:36:56.889Z,101300.16
2019-03-21T12:39:03.711Z,101294.61
2019-03-21T12:41:10.409Z,101294.42
2019-03-21T12:43:17.085Z,101306.62
2019-03-21T12:45:23.822Z,101295.44
2019-03-21T12:47:31.738Z,101296.64
2019-03-21T12:49:39.812Z,101293.14
2019-03-21T12:51:46.549Z,101295.90
2019-03-21T12:53:53.266Z,101289.44
2019-03-21T12:55:59.941Z,101286.86
2019-03-21T12:58:06.609Z,101289.28
2019-03-21T13:00:15.465Z,101283.33
2019-03-21T13:02:32.028Z,101290.07
2019-03-21T13:04:30.573Z,101279.11
2019-03-21T13:06:37.362Z,101278.99
2019-03-21T13:08:44.206Z,101280.83
2019-03-21T13:10:50.887Z,101280.11
2019-03-21T13:12:57.652Z,101274.84
2019-03-21T13:15:08.007Z,101272.34
2019-03-21T13:17:14.675Z,101267.90
2019-03-21T13:19:21.387Z,101263.66
2019-03-21T13:21:28.054Z,101254.68
2019-03-21T13:23:34.729Z,101253.16
2019-03-21T13:25:41.438Z,101256.61
2019-03-21T13:27:48.174Z,101262.39
2019-03-21T13:29:54.863Z,101250.92
2019-03-21T13:32:01.567Z,101249.85
2019-03-21T13:34:08.327Z,101256.08
2019-03-21T13:36:15.164Z,101254.97
2019-03-21T13:38:21.873Z,101257.42
2019-03-21T13:40:28.671Z,101252.95
2019-03-21T13:42:35.333Z,101253.19
2019-03-21T13:44:42.033Z,101256.02
2019-03-21T13:46:48.782Z,101248.22
2019-03-21T13:48:55.436Z,101246.95
2019-03-21T13:51:02.211Z,101245.27
2019-03-21T13:53:18.109Z,101246.64
2019-03-21T13:55:17.455Z,101249.24
2019-03-21T13:57:24.213Z,101245.75
2019-03-21T13:59:30.887Z,101234.61
2019-03-21T14:01:37.625Z,101238.83
2019-03-21T14:03:44.392Z,101246.22
2019-03-21T14:05:51.125Z,101238.98
2019-03-21T14:07:57.869Z,101236.63
2019-03-21T14:10:06.883Z,101231.84
2019-03-21T14:12:12.841Z,101242.08
2019-03-21T14:14:19.648Z,101245.83
2019-03-21T14:16:26.347Z,101244.48
2019-03-21T14:18:33.011Z,101246.50
2019-03-21T14:20:39.691Z,101242.72
2019-03-21T14:22:46.384Z,101248.23
2019-03-21T14:24:53.062Z,101240.50
2019-03-21T14:26:59.754Z,101242.12
2019-03-21T14:29:12.689Z,101239.17
2019-03-21T14:31:14.828Z,101238.06
2019-03-21T14:33:21.510Z,101232.88
2019-03-21T14:35:28.336Z,101238.49
2019-03-21T14:37:35.005Z,101234.45
2019-03-21T14:39:41.683Z,101228.23
2019-03-21T14:41:48.391Z,101233.00
2019-03-21T14:43:55.140Z,101235.12
2019-03-21T14:46:01.881Z,101240.20
2019-03-21T14:48:08.667Z,101239.15
2019-03-21T14:50:19.555Z,101236.86
2019-03-21T14:52:26.253Z,101228.70
2019-03-21T14:54:32.938Z,101233.52
2019-03-21T14:56:39.614Z,101235.77
2019-03-21T14:58:46.296Z,101232.69
2019-03-21T15:00:53.163Z,101233.68
2019-03-21T15:02:59.910Z,101230.67
2019-03-21T15:05:09.379Z,101228.91
2019-03-21T15:07:18.606Z,101225.16
2019-03-21T15:09:24.450Z,101231.39
2019-03-21T15:11:31.157Z,101231.85
2019-03-21T15:13:37.961Z,101220.69
2019-03-21T15:15:44.752Z,101229.08
2019-03-21T15:17:51.421Z,101233.48
2019-03-21T15:19:58.113Z,101236.66
2019-03-21T15:22:04.785Z,101233.58
2019-03-21T15:24:11.457Z,101233.55
2019-03-21T15:26:18.163Z,101239.68
2019-03-21T15:28:24.986Z,101238.39
2019-03-21T15:30:31.662Z,101236.13
2019-03-21T15:32:38.454Z,101239.31
2019-03-21T15:34:45.288Z,101237.55
2019-03-21T15:36:51.989Z,101236.23
2019-03-21T15:38:58.753Z,101233.16
2019-03-21T15:41:05.628Z,101238.39
2019-03-21T15:43:12.378Z,101236.09
2019-03-21T15:45:23.863Z,101232.52
2019-03-21T15:47:27.804Z,101227.22
2019-03-21T15:49:34.470Z,101231.53
2019-03-21T15:51:41.323Z,101235.73
2019-03-21T15:53:54.932Z,101242.64
2019-03-21T15:55:57.311Z,101240.32
2019-03-21T15:58:04.176Z,101241.97
2019-03-21T16:00:13.684Z,101231.91
2019-03-21T16:02:20.360Z,101234.98
2019-03-21T16:04:27.128Z,101241.64
2019-03-21T16:06:33.860Z,101241.18
2019-03-21T16:08:40.603Z,101241.18
2019-03-21T16:10:47.303Z,101242.08
2019-03-21T16:12:54.043Z,101245.09
2019-03-21T16:15:00.722Z,101238.92
2019-03-21T16:17:07.530Z,101242.83
2019-03-21T16:19:14.265Z,101239.72
2019-03-21T16:21:21.090Z,101236.20
2019-03-21T16:23:27.819Z,101234.45
2019-03-21T16:25:34.759Z,101229.58
2019-03-21T16:27:41.431Z,101228.19
2019-03-21T16:29:48.197Z,101236.81
2019-03-21T16:31:54.947Z,101229.15
2019-03-21T16:34:03.083Z,101234.80
2019-03-21T16:36:09.775Z,101232.97
2019-03-21T16:38:17.544Z,101223.20
2019-03-21T16:40:24.282Z,101227.56
2019-03-21T16:42:30.989Z,101224.45
2019-03-21T16:44:37.667Z,101225.73
2019-03-21T16:46:44.317Z,101222.16
2019-03-21T16:48:51.023Z,101221.19
2019-03-21T16:50:57.815Z,101215.85
2019-03-21T16:53:04.988Z,101214.45
2019-03-21T16:55:16.186Z,101215.73
2019-03-21T16:57:24.323Z,101221.81
2019-03-21T16:59:32.636Z,101224.38
2019-03-21T17:01:39.349Z,101225.62
2019-03-21T17:03:46.020Z,101223.84
2019-03-21T17:05:53.726Z,101227.77
2019-03-21T17:08:10.354Z,101224.22
2019-03-21T17:10:12.148Z,101224.56
2019-03-21T17:12:18.944Z,101224.95
2019-03-21T17:14:25.655Z,101226.63
2019-03-21T17:16:32.377Z,101228.33
2019-03-21T17:18:39.055Z,101229.15
2019-03-21T17:20:45.803Z,101233.08
2019-03-21T17:22:52.545Z,101227.31
2019-03-21T17:24:59.262Z,101229.92
2019-03-21T17:27:06.027Z,101229.03
2019-03-21T17:29:12.772Z,101236.07
2019-03-21T17:31:19.514Z,101240.00
2019-03-21T17:33:27.490Z,101234.70
2019-03-21T17:35:36.038Z,101237.35
2019-03-21T17:37:42.712Z,101238.67
2019-03-21T17:39:49.427Z,101237.31
2019-03-21T17:41:56.220Z,101237.30
2019-03-21T17:44:05.046Z,101235.55
2019-03-21T17:46:11.832Z,101238.16
2019-03-21T17:48:18.688Z,101233.68
2019-03-21T17:50:25.432Z,101243.37
2019-03-21T17:52:33.555Z,101241.11
2019-03-21T17:54:41.746Z,101246.83
2019-03-21T17:56:48.876Z,101241.96
2019-03-21T17:58:55.726Z,101234.88
2019-03-21T18:01:02.484Z,101237.52
2019-03-21T18:03:09.472Z,101234.88
2019-03-21T18:05:16.572Z,101231.77
2019-03-21T18:07:23.314Z,101239.31
2019-03-21T18:09:29.989Z,101232.19
2019-03-21T18:11:37.052Z,101234.80
2019-03-21T18:13:43.733Z,101233.94
2019-03-21T18:15:50.473Z,101232.62
2019-03-21T18:17:57.650Z,101233.94
2019-03-21T18:20:05.892Z,101221.58
2019-03-21T18:22:12.566Z,101225.58
2019-03-21T18:24:19.274Z,101223.36
2019-03-21T18:26:26.015Z,101222.47
2019-03-21T18:28:32.762Z,101219.86
2019-03-21T18:30:39.480Z,101214.95
2019-03-21T18:32:48.765Z,101216.28
2019-03-21T18:34:55.445Z,101223.33
2019-03-21T18:37:02.219Z,101217.98
2019-03-21T18:39:09.188Z,101219.27
2019-03-21T18:41:17.376Z,101214.41
2019-03-21T18:43:24.160Z,101220.50
2019-03-21T18:45:32.235Z,101228.82
2019-03-21T18:47:38.904Z,101223.53
2019-03-21T18:49:45.668Z,101221.74
2019-03-21T18:51:52.433Z,101226.95
2019-03-21T18:53:59.123Z,101230.48
2019-03-21T18:56:05.926Z,101225.57
2019-03-21T18:58:12.672Z,101220.71
2019-03-21T19:00:22.810Z,101225.96
2019-03-21T19:02:29.501Z,101222.38
2019-03-21T19:04:36.301Z,101219.77
2019-03-21T19:06:46.387Z,101223.70
2019-03-21T19:08:53.244Z,101217.94
2019-03-21T19:10:59.918Z,101203.36
2019-03-21T19:13:06.595Z,101206.42
2019-03-21T19:15:17.010Z,101204.16
2019-03-21T19:17:24.855Z,101207.61
2019-03-21T19:19:31.602Z,101204.41
2019-03-21T19:21:38.375Z,101202.49
2019-03-21T19:23:46.622Z,101205.51
2019-03-21T19:25:53.369Z,101200.13
2019-03-21T19:28:01.670Z,101207.59
2019-03-21T19:30:15.514Z,101202.22
2019-03-21T19:32:23.620Z,101198.17
2019-03-21T19:34:30.434Z,101192.03
2019-03-21T19:36:37.221Z,101202.55
2019-03-21T19:38:45.732Z,101197.27
2019-03-21T19:40:52.425Z,101193.31
2019-03-21T19:42:59.175Z,101200.81
2019-03-21T19:45:11.192Z,101197.79
2019-03-21T19:47:25.737Z,101205.72
2019-03-21T19:49:32.183Z,101207.51
2019-03-21T19:51:38.932Z,101215.02
2019-03-21T19:53:47.154Z,101213.73
2019-03-21T19:55:55.359Z,101210.19
2019-03-21T19:58:03.789Z,101201.38
2019-03-21T20:00:15.208Z,101204.02
2019-03-21T20:02:21.953Z,101204.48
2019-03-21T20:04:33.045Z,101202.64
2019-03-21T20:06:42.737Z,101203.92
2019-03-21T20:08:56.670Z,101209.20
2019-03-21T20:11:02.517Z,101191.56
2019-03-21T20:13:12.123Z,101191.55
2019-03-21T20:15:21.272Z,101195.94
2019-03-21T20:17:28.524Z,101195.90
2019-03-21T20:19:37.168Z,101192.31
2019-03-21T20:21:48.319Z,101190.52
2019-03-21T20:23:57.451Z,101186.02
2019-03-21T20:26:04.337Z,101188.61
2019-03-21T20:28:14.147Z,101193.84
2019-03-21T20:30:22.496Z,101193.84
2019-03-21T20:32:30.947Z,101192.53
2019-03-21T20:34:37.688Z,101194.70
2019-03-21T20:36:44.427Z,101193.84
2019-03-21T20:38:51.417Z,101197.81
2019-03-21T20:40:59.356Z,101186.77
2019-03-21T20:43:09.031Z,101183.66
2019-03-21T20:45:19.418Z,101185.87
2019-03-21T20:47:32.130Z,101186.72
2019-03-21T20:49:40.311Z,101189.74
2019-03-21T20:51:47.395Z,101192.81
2019-03-21T20:53:54.134Z,101186.59
2019-03-21T20:56:04.675Z,101190.97
2019-03-21T20:58:14.362Z,101188.66
2019-03-21T21:00:25.414Z,101191.73
2019-03-21T21:02:34.532Z,101187.73
2019-03-21T21:04:41.306Z,101188.61
2019-03-21T21:06:49.078Z,101188.09
2019-03-21T21:08:57.398Z,101189.80
2019-03-21T21:11:04.153Z,101194.66
2019-03-21T21:13:10.895Z,101193.76
2019-03-21T21:15:20.388Z,101197.72
2019-03-21T21:17:28.595Z,101200.36
2019-03-21T21:19:37.031Z,101202.11
2019-03-21T21:21:43.779Z,101209.61
2019-03-21T21:23:50.539Z,101209.13
2019-03-21T21:26:05.514Z,101214.84
2019-03-21T21:28:12.636Z,101213.00
2019-03-21T21:30:23.589Z,101206.87
2019-03-21T21:32:30.261Z,101213.52
2019-03-21T21:34:36.936Z,101206.91
2019-03-21T21:36:45.030Z,101206.44
2019-03-21T21:38:51.693Z,101205.55
2019-03-21T21:40:58.435Z,101195.83
2019-03-21T21:43:06.248Z,101197.67
2019-03-21T21:45:16.132Z,101190.22
2019-03-21T21:47:22.908Z,101185.36
2019-03-21T21:49:29.597Z,101181.87
2019-03-21T21:51:36.271Z,101189.80
2019-03-21T21:53:43.015Z,101194.61
2019-03-21T21:55:49.784Z,101195.17
2019-03-21T21:57:56.545Z,101191.27
2019-03-21T22:00:04.875Z,101199.80
2019-03-21T22:02:11.580Z,101198.98
2019-03-21T22:04:18.264Z,101201.73
2019-03-21T22:06:25.044Z,101198.75
2019-03-21T22:08:31.818Z,101201.14
2019-03-21T22:10:39.501Z,101202.56
2019-03-21T22:12:47.517Z,101199.48
2019-03-21T22:14:55.234Z,101193.40
2019-03-21T22:17:01.974Z,101194.38
2019-03-21T22:19:08.651Z,101197.11
2019-03-21T22:21:15.424Z,101190.13
2019-03-21T22:23:22.100Z,101195.45
2019-03-21T22:25:28.848Z,101196.40
2019-03-21T22:27:35.558Z,101197.80
2019-03-21T22:29:42.306Z,101210.17
2019-03-21T22:31:48.979Z,101206.29
2019-03-21T22:33:55.802Z,101207.19
2019-03-21T22:36:02.452Z,101203.64
2019-03-21T22:38:09.204Z,101195.25
2019-03-21T22:40:20.169Z,101194.39
2019-03-21T22:42:26.924Z,101194.86
2019-03-21T22:44:33.667Z,101183.44
2019-03-21T22:46:40.372Z,101185.62
2019-03-21T22:48:47.043Z,101185.19
2019-03-21T22:50:53.716Z,101176.83
2019-03-21T22:53:00.410Z,101184.75
2019-03-21T22:55:08.645Z,101184.67
2019-03-21T22:57:15.343Z,101183.35
2019-03-21T22:59:22.039Z,101176.70
2019-03-21T23:01:29.286Z,101181.09
2019-03-21T23:03:36.077Z,101179.77
2019-03-21T23:05:42.844Z,101184.16
2019-03-21T23:07:49.517Z,101182.87
2019-03-21T23:09:56.331Z,101181.47
2019-03-21T23:12:03.062Z,101175.72
2019-03-21T23:14:09.830Z,101174.86
2019-03-21T23:16:16.582Z,101171.33
2019-03-21T23:18:23.368Z,101178.32
2019-03-21T23:20:31.047Z,101168.17
2019-03-21T23:22:37.794Z,101179.13
2019-03-21T23:24:44.501Z,101171.15
2019-03-21T23:26:53.216Z,101175.11
2019-03-21T23:28:59.550Z,101172.00
2019-03-21T23:31:06.397Z,101175.50
2019-03-21T23:33:13.082Z,101175.50
2019-03-21T23:35:19.758Z,101175.03
2019-03-21T23:37:26.647Z,101173.66
2019-03-21T23:39:33.593Z,101172.77
2019-03-21T23:41:40.339Z,101169.19
2019-03-21T23:43:47.161Z,101166.12
2019-03-21T23:45:53.844Z,101166.55
2019-03-21T23:48:00.525Z,101179.37
2019-03-21T23:50:13.375Z,101170.00
2019-03-21T23:52:20.037Z,101166.88
2019-03-21T23:54:26.708Z,101174.33
2019-03-21T23:56:33.427Z,101173.06
2019-03-21T23:58:40.231Z,101165.13
